createdAt,value
2022-12-25T00:01:41.548Z,5.23
2022-12-25T00:04:08.463Z,7.83
2022-12-25T00:06:36.063Z,5.20
2022-12-25T00:09:02.902Z,6.40
2022-12-25T00:11:29.722Z,6.33
2022-12-25T00:13:56.749Z,6.93
2022-12-25T00:16:25.715Z,3.60
2022-12-25T00:18:53.709Z,5.57
2022-12-25T00:21:21.211Z,8.43
2022-12-25T00:23:48.063Z,4.70
2022-12-25T00:26:17.347Z,5.50
2022-12-25T00:28:44.282Z,4.50
2022-12-25T00:31:16.511Z,5.17
2022-12-25T00:33:44.799Z,3.87
2022-12-25T00:36:13.167Z,11.10
2022-12-25T00:38:40.881Z,3.50
2022-12-25T00:41:12.903Z,3.30
2022-12-25T00:43:42.056Z,8.13
2022-12-25T00:46:10.812Z,3.83
2022-12-25T00:48:37.912Z,5.60
2022-12-25T00:51:07.264Z,3.50
2022-12-25T00:53:33.980Z,4.30
2022-12-25T00:56:04.492Z,4.57
2022-12-25T00:58:33.383Z,6.83
2022-12-25T01:01:00.354Z,5.43
2022-12-25T01:03:27.748Z,4.37
2022-12-25T01:05:58.689Z,4.60
2022-12-25T01:08:25.938Z,5.03
2022-12-25T01:11:00.694Z,4.07
2022-12-25T01:13:28.953Z,5.93
2022-12-25T01:15:55.957Z,5.20
2022-12-25T01:18:24.512Z,3.20
2022-12-25T01:20:51.906Z,3.67
2022-12-25T01:23:18.654Z,6.73
2022-12-25T01:25:45.418Z,3.53
2022-12-25T01:28:12.478Z,3.63
2022-12-25T01:30:39.536Z,3.23
2022-12-25T01:33:06.239Z,4.80
2022-12-25T01:35:32.997Z,5.27
2022-12-25T01:37:59.728Z,3.80
2022-12-25T01:40:26.593Z,4.93
2022-12-25T01:42:53.359Z,5.60
2022-12-25T01:45:40.537Z,11.13
2022-12-25T01:48:19.054Z,6.43
2022-12-25T01:50:58.904Z,6.40
2022-12-25T01:53:26.838Z,5.63
2022-12-25T01:56:00.458Z,3.17
2022-12-25T01:58:27.665Z,4.87
2022-12-25T02:00:54.659Z,6.10
2022-12-25T02:03:22.522Z,8.10
2022-12-25T02:05:50.703Z,5.00
2022-12-25T02:08:19.534Z,3.77
2022-12-25T02:10:46.469Z,6.83
2022-12-25T02:13:15.187Z,3.70
2022-12-25T02:15:57.216Z,4.90
2022-12-25T02:18:44.052Z,5.30
2022-12-25T02:21:23.312Z,4.03
2022-12-25T02:24:12.780Z,3.47
2022-12-25T02:27:11.101Z,4.80
2022-12-25T02:30:02.095Z,3.77
2022-12-25T02:32:32.357Z,3.93
2022-12-25T02:35:04.804Z,4.97
2022-12-25T02:37:36.453Z,3.20
2022-12-25T02:40:12.157Z,4.87
2022-12-25T02:43:06.216Z,4.53
2022-12-25T02:45:59.442Z,4.90
2022-12-25T02:48:48.813Z,4.80
2022-12-25T02:51:36.840Z,9.87
2022-12-25T02:54:27.412Z,7.10
2022-12-25T02:57:14.086Z,9.33
2022-12-25T03:00:03.803Z,6.83
2022-12-25T03:02:51.815Z,4.37
2022-12-25T03:05:41.948Z,3.23
2022-12-25T03:08:21.788Z,4.60
2022-12-25T03:11:29.653Z,10.70
2022-12-25T03:14:24.510Z,5.60
2022-12-25T03:16:56.348Z,4.43
2022-12-25T03:19:45.628Z,4.03
2022-12-25T03:22:40.757Z,4.57
2022-12-25T03:25:26.712Z,5.73
2022-12-25T03:27:55.928Z,4.53
2022-12-25T03:30:45.598Z,13.00
2022-12-25T03:33:44.326Z,5.70
2022-12-25T03:36:36.773Z,4.70
2022-12-25T03:39:21.399Z,7.23
2022-12-25T03:42:11.101Z,7.97
2022-12-25T03:45:21.180Z,7.97
2022-12-25T03:48:28.295Z,8.30
2022-12-25T03:51:20.721Z,9.43
2022-12-25T03:54:14.429Z,6.87
2022-12-25T03:57:02.404Z,9.30
2022-12-25T03:59:48.048Z,8.60
2022-12-25T04:02:33.513Z,7.80
2022-12-25T04:05:18.969Z,14.30
2022-12-25T04:08:04.347Z,7.50
2022-12-25T04:10:49.812Z,10.90
2022-12-25T04:13:35.297Z,8.90
2022-12-25T04:16:20.642Z,6.30
2022-12-25T04:19:06.089Z,8.90
2022-12-25T04:21:51.448Z,7.27
2022-12-25T04:24:37.006Z,8.37
2022-12-25T04:27:22.333Z,9.00
2022-12-25T04:30:07.643Z,9.03
2022-12-25T04:32:53.045Z,9.30
2022-12-25T04:35:38.409Z,8.60
2022-12-25T04:38:05.180Z,6.87
2022-12-25T04:40:31.866Z,6.90
2022-12-25T04:42:58.624Z,11.77
2022-12-25T04:45:25.373Z,7.13
2022-12-25T04:47:52.079Z,8.53
2022-12-25T04:50:18.952Z,6.07
2022-12-25T04:52:45.698Z,6.53
2022-12-25T04:55:12.474Z,7.23
2022-12-25T04:57:40.322Z,7.57
2022-12-25T05:00:07.826Z,7.30
2022-12-25T05:02:34.903Z,7.30
2022-12-25T05:05:01.941Z,6.43
2022-12-25T05:07:28.796Z,7.17
2022-12-25T05:09:55.613Z,5.70
2022-12-25T05:12:22.381Z,5.03
2022-12-25T05:14:49.084Z,7.70
2022-12-25T05:17:15.770Z,9.30
2022-12-25T05:19:43.043Z,7.83
2022-12-25T05:22:09.983Z,5.80
2022-12-25T05:24:36.825Z,7.63
2022-12-25T05:27:03.712Z,7.00
2022-12-25T05:29:30.533Z,5.80
2022-12-25T05:31:57.332Z,7.70
2022-12-25T05:34:24.082Z,5.03
2022-12-25T05:36:50.874Z,9.23
2022-12-25T05:39:17.738Z,8.13
2022-12-25T05:41:44.668Z,9.83
2022-12-25T05:44:11.507Z,12.00
2022-12-25T05:46:38.347Z,13.83
2022-12-25T05:49:05.739Z,16.27
2022-12-25T05:51:32.880Z,14.40
2022-12-25T05:53:59.693Z,20.17
2022-12-25T05:56:27.066Z,18.07
2022-12-25T05:58:54.058Z,19.47
2022-12-25T06:01:24.124Z,18.70
2022-12-25T06:03:51.284Z,18.13
2022-12-25T06:06:18.238Z,19.20
2022-12-25T06:08:45.318Z,20.27
2022-12-25T06:11:14.255Z,28.00
2022-12-25T06:13:41.194Z,24.33
2022-12-25T06:16:09.857Z,20.50
2022-12-25T06:18:42.023Z,19.40
2022-12-25T06:21:11.516Z,25.30
2022-12-25T06:23:38.992Z,21.33
2022-12-25T06:26:09.032Z,21.00
2022-12-25T06:28:36.451Z,26.13
2022-12-25T06:31:11.193Z,22.93
2022-12-25T06:33:38.551Z,22.00
2022-12-25T06:36:07.612Z,26.60
2022-12-25T06:38:35.154Z,24.03
2022-12-25T06:41:29.192Z,26.60
2022-12-25T06:44:00.630Z,25.97
2022-12-25T06:46:30.012Z,30.30
2022-12-25T06:48:59.634Z,38.27
2022-12-25T06:51:29.686Z,28.23
2022-12-25T06:53:56.946Z,29.20
2022-12-25T06:56:26.306Z,27.13
2022-12-25T06:58:56.024Z,28.60
2022-12-25T07:01:48.121Z,29.33
2022-12-25T07:04:21.478Z,31.10
2022-12-25T07:06:48.249Z,34.97
2022-12-25T07:09:14.974Z,33.70
2022-12-25T07:11:41.737Z,32.60
2022-12-25T07:14:24.376Z,34.80
2022-12-25T07:16:51.676Z,35.07
2022-12-25T07:19:19.311Z,35.93
2022-12-25T07:21:46.298Z,39.00
2022-12-25T07:24:17.620Z,36.17
2022-12-25T07:26:44.356Z,37.53
2022-12-25T07:29:11.173Z,40.77
2022-12-25T07:31:37.996Z,35.83
2022-12-25T07:34:04.891Z,40.70
2022-12-25T07:36:31.666Z,40.90
2022-12-25T07:38:58.425Z,38.37
2022-12-25T07:41:25.265Z,38.57
2022-12-25T07:43:53.871Z,47.93
2022-12-25T07:46:22.772Z,43.20
2022-12-25T07:48:49.887Z,39.43
2022-12-25T07:51:16.876Z,44.60
2022-12-25T07:53:43.664Z,40.33
2022-12-25T07:56:16.054Z,45.37
2022-12-25T07:58:43.563Z,41.30
2022-12-25T08:01:14.950Z,43.60
2022-12-25T08:03:41.958Z,43.33
2022-12-25T08:06:10.443Z,44.30
2022-12-25T08:08:38.442Z,45.70
2022-12-25T08:11:07.778Z,50.47
2022-12-25T08:13:35.374Z,44.13
2022-12-25T08:16:05.118Z,41.10
2022-12-25T08:18:32.439Z,38.37
2022-12-25T08:21:07.359Z,40.13
2022-12-25T08:23:35.283Z,43.33
2022-12-25T08:26:05.393Z,39.73
2022-12-25T08:28:34.369Z,44.33
2022-12-25T08:31:07.840Z,41.43
2022-12-25T08:33:34.974Z,43.33
2022-12-25T08:36:06.930Z,35.53
2022-12-25T08:38:33.743Z,42.70
2022-12-25T08:41:00.780Z,34.47
2022-12-25T08:43:27.756Z,41.27
2022-12-25T08:45:54.494Z,44.90
2022-12-25T08:48:21.613Z,43.70
2022-12-25T08:50:50.126Z,41.20
2022-12-25T08:53:17.710Z,39.20
2022-12-25T08:55:44.818Z,43.73
2022-12-25T08:58:12.094Z,37.53
2022-12-25T09:00:38.827Z,38.37
2022-12-25T09:03:05.659Z,36.73
2022-12-25T09:05:35.596Z,35.93
2022-12-25T09:08:03.922Z,36.20
2022-12-25T09:10:30.695Z,35.67
2022-12-25T09:12:57.516Z,32.53
2022-12-25T09:15:24.302Z,29.07
2022-12-25T09:17:51.178Z,32.17
2022-12-25T09:20:18.059Z,35.50
2022-12-25T09:22:44.814Z,37.93
2022-12-25T09:25:11.807Z,30.90
2022-12-25T09:27:38.608Z,33.30
2022-12-25T09:30:06.249Z,34.70
2022-12-25T09:32:33.106Z,34.77
2022-12-25T09:34:59.909Z,33.70
2022-12-25T09:37:26.625Z,34.10
2022-12-25T09:39:53.452Z,30.10
2022-12-25T09:42:28.945Z,27.53
2022-12-25T09:45:00.507Z,31.40
2022-12-25T09:47:31.056Z,30.10
2022-12-25T09:50:04.857Z,28.87
2022-12-25T09:52:57.503Z,28.00
2022-12-25T09:55:27.175Z,27.37
2022-12-25T09:58:00.697Z,30.67
2022-12-25T10:00:40.630Z,26.40
2022-12-25T10:03:16.306Z,25.23
2022-12-25T10:06:06.434Z,27.30
2022-12-25T10:09:02.215Z,24.77
2022-12-25T10:12:05.790Z,25.50
2022-12-25T10:15:06.073Z,25.33
2022-12-25T10:17:51.717Z,22.80
2022-12-25T10:20:49.338Z,20.87
2022-12-25T10:23:19.834Z,25.10
2022-12-25T10:25:47.493Z,27.50
2022-12-25T10:28:38.837Z,21.47
2022-12-25T10:31:21.315Z,24.27
2022-12-25T10:33:52.963Z,22.10
2022-12-25T10:36:28.205Z,25.60
2022-12-25T10:38:56.331Z,22.63
2022-12-25T10:41:34.259Z,23.97
2022-12-25T10:44:11.754Z,21.20
2022-12-25T10:46:38.669Z,26.30
2022-12-25T10:49:12.537Z,22.67
2022-12-25T10:51:39.975Z,22.90
2022-12-25T10:54:36.118Z,22.90
2022-12-25T10:57:10.440Z,26.00
2022-12-25T10:59:47.405Z,26.33
2022-12-25T11:02:40.357Z,25.17
2022-12-25T11:05:23.271Z,32.40
2022-12-25T11:07:56.959Z,23.53
2022-12-25T11:10:26.041Z,26.50
2022-12-25T11:12:53.894Z,29.13
2022-12-25T11:15:43.387Z,29.37
2022-12-25T11:18:23.158Z,25.53
2022-12-25T11:20:58.797Z,24.57
2022-12-25T11:23:28.440Z,21.90
2022-12-25T11:26:02.591Z,20.97
2022-12-25T11:28:31.258Z,20.37
2022-12-25T11:31:06.594Z,18.10
2022-12-25T11:33:38.779Z,18.97
2022-12-25T11:36:17.371Z,18.17
2022-12-25T11:38:44.148Z,16.50
2022-12-25T11:41:12.914Z,18.20
2022-12-25T11:43:46.650Z,14.53
2022-12-25T11:46:15.446Z,20.13
2022-12-25T11:48:47.143Z,18.23
2022-12-25T11:51:15.086Z,22.50
2022-12-25T11:53:48.692Z,14.97
2022-12-25T11:56:19.823Z,16.97
2022-12-25T11:58:49.597Z,16.00
2022-12-25T12:01:32.686Z,18.90
2022-12-25T12:04:05.659Z,16.30
2022-12-25T12:06:41.335Z,14.67
2022-12-25T12:09:26.635Z,13.60
2022-12-25T12:12:16.504Z,14.13
2022-12-25T12:14:49.357Z,17.90
2022-12-25T12:17:17.269Z,14.07
2022-12-25T12:19:44.313Z,12.80
2022-12-25T12:22:22.341Z,12.60
2022-12-25T12:25:01.326Z,13.10
2022-12-25T12:27:40.280Z,13.37
2022-12-25T12:30:21.801Z,10.97
2022-12-25T12:32:53.020Z,9.90
2022-12-25T12:35:27.929Z,11.07
2022-12-25T12:38:05.477Z,12.27
2022-12-25T12:40:36.730Z,18.63
2022-12-25T12:43:05.888Z,10.97
2022-12-25T12:45:38.054Z,15.43
2022-12-25T12:48:15.996Z,11.60
2022-12-25T12:50:43.001Z,11.03
2022-12-25T12:53:24.691Z,11.43
2022-12-25T12:55:52.675Z,16.10
2022-12-25T12:58:30.982Z,12.23
2022-12-25T13:01:27.028Z,9.30
2022-12-25T13:04:25.000Z,11.00
2022-12-25T13:06:54.532Z,9.60
2022-12-25T13:09:52.411Z,11.63
2022-12-25T13:12:20.415Z,18.03
2022-12-25T13:14:49.750Z,10.27
2022-12-25T13:17:22.803Z,13.43
2022-12-25T13:19:57.359Z,12.37
2022-12-25T13:22:30.033Z,10.33
2022-12-25T13:24:59.720Z,9.50
2022-12-25T13:27:30.488Z,7.47
2022-12-25T13:29:58.068Z,17.40
2022-12-25T13:32:33.562Z,9.03
2022-12-25T13:35:00.922Z,6.50
2022-12-25T13:37:30.440Z,6.40
2022-12-25T13:39:57.197Z,5.40
2022-12-25T13:42:30.155Z,4.33
2022-12-25T13:45:01.725Z,3.80
2022-12-25T13:47:37.602Z,5.67
2022-12-25T13:50:30.552Z,5.93
2022-12-25T13:53:09.754Z,6.27
2022-12-25T13:55:37.314Z,6.73
2022-12-25T13:58:07.029Z,5.40
2022-12-25T14:00:40.329Z,7.97
2022-12-25T14:03:15.141Z,5.57
2022-12-25T14:05:43.607Z,7.70
2022-12-25T14:08:16.888Z,8.03
2022-12-25T14:10:47.972Z,4.80
2022-12-25T14:13:16.269Z,4.90
2022-12-25T14:15:45.007Z,4.00
2022-12-25T14:18:16.417Z,6.57
2022-12-25T14:20:54.939Z,5.57
2022-12-25T14:23:22.357Z,5.30
2022-12-25T14:25:49.182Z,3.70
2022-12-25T14:28:32.349Z,7.37
2022-12-25T14:31:01.497Z,4.00
2022-12-25T14:33:32.780Z,4.67
2022-12-25T14:35:59.679Z,7.70
2022-12-25T14:38:30.191Z,3.20
2022-12-25T14:41:05.793Z,3.53
2022-12-25T14:43:34.560Z,3.97
2022-12-25T14:46:04.037Z,2.87
2022-12-25T14:48:32.687Z,4.00
2022-12-25T14:51:03.660Z,6.13
2022-12-25T14:53:47.453Z,4.37
2022-12-25T14:56:20.050Z,3.40
2022-12-25T14:58:53.671Z,4.17
2022-12-25T15:01:29.562Z,5.40
2022-12-25T15:04:11.599Z,4.13
2022-12-25T15:06:53.275Z,4.10
2022-12-25T15:09:21.062Z,4.73
2022-12-25T15:11:52.928Z,5.20
2022-12-25T15:14:19.672Z,4.37
2022-12-25T15:16:49.789Z,5.33
2022-12-25T15:19:25.212Z,4.33
2022-12-25T15:21:53.554Z,4.73
2022-12-25T15:24:20.331Z,5.17
2022-12-25T15:26:47.648Z,5.37
2022-12-25T15:29:14.410Z,3.90
2022-12-25T15:31:42.187Z,6.70
2022-12-25T15:34:28.129Z,6.17
2022-12-25T15:36:54.883Z,6.70
2022-12-25T15:39:21.705Z,3.40
2022-12-25T15:42:08.394Z,4.07
2022-12-25T15:44:35.519Z,4.03
2022-12-25T15:47:02.475Z,4.43
2022-12-25T15:49:29.978Z,4.33
2022-12-25T15:51:56.884Z,5.47
2022-12-25T15:54:23.684Z,5.97
2022-12-25T15:56:53.089Z,3.77
2022-12-25T15:59:21.499Z,5.83
2022-12-25T16:01:54.211Z,5.60
2022-12-25T16:04:22.404Z,7.43
2022-12-25T16:06:49.985Z,4.33
2022-12-25T16:09:20.047Z,9.43
2022-12-25T16:11:47.236Z,6.57
2022-12-25T16:14:14.593Z,6.10
2022-12-25T16:16:41.727Z,10.17
2022-12-25T16:19:10.008Z,10.03
2022-12-25T16:21:44.986Z,10.30
2022-12-25T16:24:11.861Z,6.83
2022-12-25T16:26:38.750Z,6.63
2022-12-25T16:29:07.616Z,4.70
2022-12-25T16:31:36.265Z,5.17
2022-12-25T16:34:04.347Z,6.73
2022-12-25T16:36:31.177Z,6.33
2022-12-25T16:38:58.066Z,9.40
2022-12-25T16:41:24.816Z,7.27
2022-12-25T16:43:51.695Z,9.40
2022-12-25T16:46:22.543Z,8.67
2022-12-25T16:48:49.561Z,5.57
2022-12-25T16:51:19.764Z,5.03
2022-12-25T16:53:47.349Z,5.57
2022-12-25T16:56:16.611Z,5.60
2022-12-25T16:58:46.735Z,6.73
2022-12-25T17:01:16.448Z,5.97
2022-12-25T17:03:43.475Z,7.10
2022-12-25T17:06:20.591Z,5.87
2022-12-25T17:08:47.591Z,4.47
2022-12-25T17:11:15.566Z,6.30
2022-12-25T17:13:47.473Z,5.10
2022-12-25T17:16:26.717Z,5.10
2022-12-25T17:19:01.218Z,8.33
2022-12-25T17:21:28.967Z,19.27
2022-12-25T17:24:02.957Z,27.20
2022-12-25T17:26:31.786Z,25.57
2022-12-25T17:28:59.015Z,34.00
2022-12-25T17:31:25.815Z,36.17
2022-12-25T17:33:52.689Z,28.80
2022-12-25T17:36:21.203Z,29.73
2022-12-25T17:38:48.748Z,26.27
2022-12-25T17:41:17.391Z,23.40
2022-12-25T17:43:45.805Z,19.60
2022-12-25T17:46:17.667Z,24.13
2022-12-25T17:48:45.183Z,21.33
2022-12-25T17:51:16.390Z,25.93
2022-12-25T17:53:45.445Z,36.33
2022-12-25T17:56:12.852Z,29.13
2022-12-25T17:58:39.830Z,22.73
2022-12-25T18:01:15.493Z,22.47
2022-12-25T18:03:44.261Z,27.80
2022-12-25T18:06:13.845Z,29.70
2022-12-25T18:08:42.229Z,31.83
2022-12-25T18:11:15.416Z,33.80
2022-12-25T18:13:48.394Z,39.17
2022-12-25T18:16:16.511Z,56.80
2022-12-25T18:18:51.174Z,76.00
2022-12-25T18:21:19.337Z,86.30
2022-12-25T18:23:46.501Z,72.70
2022-12-25T18:26:14.315Z,75.43
2022-12-25T18:28:42.707Z,66.03
2022-12-25T18:31:31.062Z,52.53
2022-12-25T18:33:58.664Z,36.90
2022-12-25T18:36:27.792Z,14.60
2022-12-25T18:38:55.547Z,14.47
2022-12-25T18:41:23.219Z,24.20
2022-12-25T18:43:53.219Z,13.67
2022-12-25T18:46:24.417Z,8.33
2022-12-25T18:48:52.028Z,11.00
2022-12-25T18:51:19.074Z,7.90
2022-12-25T18:53:46.213Z,9.37
2022-12-25T18:56:18.129Z,11.90
2022-12-25T18:58:46.273Z,10.50
2022-12-25T19:01:19.310Z,8.90
2022-12-25T19:03:48.756Z,10.70
2022-12-25T19:06:23.183Z,17.73
2022-12-25T19:08:49.971Z,18.63
2022-12-25T19:11:17.777Z,9.60
2022-12-25T19:13:45.189Z,12.50
2022-12-25T19:16:12.497Z,9.87
2022-12-25T19:18:39.775Z,6.70
2022-12-25T19:21:08.834Z,6.93
2022-12-25T19:23:40.565Z,9.40
2022-12-25T19:26:08.613Z,17.87
2022-12-25T19:28:35.954Z,30.40
2022-12-25T19:31:03.831Z,25.80
2022-12-25T19:33:31.992Z,29.73
2022-12-25T19:36:06.928Z,23.27
2022-12-25T19:38:34.002Z,26.57
2022-12-25T19:41:08.949Z,31.90
2022-12-25T19:43:37.959Z,25.60
2022-12-25T19:46:06.638Z,30.90
2022-12-25T19:48:34.367Z,22.53
2022-12-25T19:51:01.300Z,23.00
2022-12-25T19:53:29.958Z,18.57
2022-12-25T19:56:02.482Z,22.53
2022-12-25T19:58:30.066Z,25.57
2022-12-25T20:01:01.768Z,20.27
2022-12-25T20:03:28.804Z,28.87
2022-12-25T20:05:56.599Z,48.83
2022-12-25T20:08:23.650Z,44.67
2022-12-25T20:10:50.512Z,40.07
2022-12-25T20:13:18.279Z,41.40
2022-12-25T20:15:45.216Z,44.47
2022-12-25T20:18:14.676Z,36.50
2022-12-25T20:20:41.441Z,37.40
2022-12-25T20:23:08.326Z,33.53
2022-12-25T20:25:39.856Z,28.60
2022-12-25T20:28:06.730Z,16.70
2022-12-25T20:30:33.475Z,14.03
2022-12-25T20:33:01.763Z,11.50
2022-12-25T20:35:28.504Z,10.87
2022-12-25T20:37:55.246Z,15.33
2022-12-25T20:40:22.002Z,16.30
2022-12-25T20:42:48.756Z,14.60
2022-12-25T20:45:15.497Z,13.10
2022-12-25T20:47:42.248Z,15.87
2022-12-25T20:50:09.141Z,17.33
2022-12-25T20:52:35.976Z,13.77
2022-12-25T20:55:02.728Z,16.33
2022-12-25T20:57:29.441Z,15.03
2022-12-25T20:59:56.248Z,16.70
2022-12-25T21:02:34.533Z,26.17
2022-12-25T21:05:07.929Z,20.60
2022-12-25T21:07:34.789Z,17.70
2022-12-25T21:10:01.639Z,21.67
2022-12-25T21:12:28.460Z,20.23
2022-12-25T21:14:55.211Z,18.63
2022-12-25T21:17:22.060Z,9.50
2022-12-25T21:19:48.919Z,6.03
2022-12-25T21:22:15.669Z,9.57
2022-12-25T21:24:43.037Z,8.70
2022-12-25T21:27:09.981Z,7.97
2022-12-25T21:29:36.869Z,10.40
2022-12-25T21:32:22.160Z,12.80
2022-12-25T21:34:48.936Z,14.90
2022-12-25T21:37:15.635Z,13.83
2022-12-25T21:39:42.386Z,11.87
2022-12-25T21:42:09.134Z,15.03
2022-12-25T21:44:35.923Z,13.20
2022-12-25T21:47:02.687Z,10.60
2022-12-25T21:49:48.015Z,18.77
2022-12-25T21:52:14.917Z,18.50
2022-12-25T21:54:41.794Z,15.90
2022-12-25T21:57:08.618Z,19.00
2022-12-25T21:59:35.537Z,22.53
2022-12-25T22:02:02.360Z,13.47
2022-12-25T22:04:29.192Z,13.00
2022-12-25T22:07:14.442Z,12.40
2022-12-25T22:09:44.172Z,10.47
2022-12-25T22:12:34.078Z,9.03
2022-12-25T22:15:03.097Z,11.33
2022-12-25T22:17:51.237Z,8.48
2022-12-25T22:20:30.800Z,17.13
2022-12-25T22:22:58.148Z,8.37
2022-12-25T22:25:25.364Z,8.60
2022-12-25T22:27:52.400Z,10.17
2022-12-25T22:30:22.634Z,6.50
2022-12-25T22:32:50.478Z,10.13
2022-12-25T22:35:17.376Z,5.70
2022-12-25T22:37:44.943Z,8.70
2022-12-25T22:40:15.382Z,5.63
2022-12-25T22:42:42.529Z,12.40
2022-12-25T22:45:10.062Z,7.00
2022-12-25T22:47:36.865Z,8.80
2022-12-25T22:50:04.071Z,6.60
2022-12-25T22:52:30.913Z,6.97
2022-12-25T22:54:57.674Z,8.77
2022-12-25T22:57:24.423Z,6.83
2022-12-25T22:59:54.294Z,6.93
2022-12-25T23:02:21.600Z,7.10
2022-12-25T23:04:48.980Z,7.67
2022-12-25T23:07:15.930Z,8.00
2022-12-25T23:09:43.536Z,10.00
2022-12-25T23:12:30.520Z,10.30
2022-12-25T23:14:58.010Z,10.57
2022-12-25T23:17:43.367Z,10.67
2022-12-25T23:20:31.404Z,10.50
2022-12-25T23:23:16.820Z,10.35
2022-12-25T23:26:02.046Z,12.75
2022-12-25T23:28:47.407Z,17.73
2022-12-25T23:31:14.363Z,13.90
2022-12-25T23:33:41.098Z,14.30
2022-12-25T23:36:08.092Z,11.90
2022-12-25T23:38:34.868Z,14.83
2022-12-25T23:41:01.706Z,19.17
2022-12-25T23:43:28.605Z,19.40
2022-12-25T23:45:55.293Z,12.27
2022-12-25T23:48:21.992Z,13.93
2022-12-25T23:50:48.785Z,14.07
2022-12-25T23:53:15.595Z,12.17
2022-12-25T23:55:42.783Z,10.10
2022-12-25T23:58:09.649Z,11.43
